sensor_id;sensor_type;location;lat;lon;timestamp;temperature;humidity
17998;DHT22;9124;48.144;17.098;2023-08-06T00:02:15;16.60;99.90
17998;DHT22;9124;48.144;17.098;2023-08-06T00:06:42;16.60;99.90
17998;DHT22;9124;48.144;17.098;2023-08-06T00:11:08;16.60;99.90
17998;DHT22;9124;48.144;17.098;2023-08-06T00:15:35;16.60;99.90
17998;DHT22;9124;48.144;17.098;2023-08-06T00:20:03;16.60;99.90
17998;DHT22;9124;48.144;17.098;2023-08-06T00:24:33;16.60;99.90
17998;DHT22;9124;48.144;17.098;2023-08-06T00:28:59;16.50;99.90
17998;DHT22;9124;48.144;17.098;2023-08-06T00:33:26;16.50;99.90
17998;DHT22;9124;48.144;17.098;2023-08-06T00:37:52;16.50;99.90
17998;DHT22;9124;48.144;17.098;2023-08-06T00:42:19;16.40;99.90
17998;DHT22;9124;48.144;17.098;2023-08-06T00:46:47;16.40;99.90
17998;DHT22;9124;48.144;17.098;2023-08-06T00:51:14;16.40;99.90
17998;DHT22;9124;48.144;17.098;2023-08-06T00:55:43;16.40;99.90
17998;DHT22;9124;48.144;17.098;2023-08-06T01:00:12;16.40;99.90
17998;DHT22;9124;48.144;17.098;2023-08-06T01:04:38;16.30;99.90
17998;DHT22;9124;48.144;17.098;2023-08-06T01:13:46;16.40;99.90
17998;DHT22;9124;48.144;17.098;2023-08-06T01:18:16;16.40;99.90
17998;DHT22;9124;48.144;17.098;2023-08-06T01:22:42;16.40;99.90
17998;DHT22;9124;48.144;17.098;2023-08-06T01:27:17;16.40;99.90
17998;DHT22;9124;48.144;17.098;2023-08-06T01:31:48;16.40;99.90
17998;DHT22;9124;48.144;17.098;2023-08-06T01:36:18;16.40;99.90
17998;DHT22;9124;48.144;17.098;2023-08-06T01:40:45;16.40;99.90
17998;DHT22;9124;48.144;17.098;2023-08-06T01:45:12;16.40;99.90
17998;DHT22;9124;48.144;17.098;2023-08-06T01:49:39;16.40;99.90
17998;DHT22;9124;48.144;17.098;2023-08-06T01:54:05;16.40;99.90
17998;DHT22;9124;48.144;17.098;2023-08-06T01:58:31;16.30;99.90
17998;DHT22;9124;48.144;17.098;2023-08-06T02:02:57;16.20;99.90
17998;DHT22;9124;48.144;17.098;2023-08-06T02:07:24;16.10;99.90
17998;DHT22;9124;48.144;17.098;2023-08-06T02:11:50;16.00;99.90
17998;DHT22;9124;48.144;17.098;2023-08-06T02:16:16;15.90;99.90
17998;DHT22;9124;48.144;17.098;2023-08-06T02:20:43;15.90;99.90
17998;DHT22;9124;48.144;17.098;2023-08-06T02:25:10;15.80;99.90
17998;DHT22;9124;48.144;17.098;2023-08-06T02:29:36;15.80;99.90
17998;DHT22;9124;48.144;17.098;2023-08-06T02:34:02;15.80;99.90
17998;DHT22;9124;48.144;17.098;2023-08-06T02:38:29;15.70;99.90
17998;DHT22;9124;48.144;17.098;2023-08-06T02:42:56;15.70;99.90
17998;DHT22;9124;48.144;17.098;2023-08-06T02:47:23;15.70;99.90
17998;DHT22;9124;48.144;17.098;2023-08-06T02:51:50;15.70;99.90
17998;DHT22;9124;48.144;17.098;2023-08-06T02:56:16;15.70;99.90
17998;DHT22;9124;48.144;17.098;2023-08-06T03:01:21;15.70;99.90
17998;DHT22;9124;48.144;17.098;2023-08-06T03:05:55;15.70;99.90
17998;DHT22;9124;48.144;17.098;2023-08-06T03:10:35;15.60;99.90
17998;DHT22;9124;48.144;17.098;2023-08-06T03:15:04;15.60;99.90
17998;DHT22;9124;48.144;17.098;2023-08-06T03:19:31;15.60;99.90
17998;DHT22;9124;48.144;17.098;2023-08-06T03:23:58;15.50;99.90
17998;DHT22;9124;48.144;17.098;2023-08-06T03:28:28;15.50;99.90
17998;DHT22;9124;48.144;17.098;2023-08-06T03:32:55;15.50;99.90
17998;DHT22;9124;48.144;17.098;2023-08-06T03:37:22;15.50;99.90
17998;DHT22;9124;48.144;17.098;2023-08-06T03:41:51;15.50;99.90
17998;DHT22;9124;48.144;17.098;2023-08-06T03:46:17;15.50;99.90
17998;DHT22;9124;48.144;17.098;2023-08-06T03:50:44;15.50;99.90
17998;DHT22;9124;48.144;17.098;2023-08-06T03:55:13;15.50;99.90
17998;DHT22;9124;48.144;17.098;2023-08-06T03:59:40;15.50;99.90
17998;DHT22;9124;48.144;17.098;2023-08-06T04:04:06;15.50;99.90
17998;DHT22;9124;48.144;17.098;2023-08-06T04:08:33;15.50;99.90
17998;DHT22;9124;48.144;17.098;2023-08-06T04:12:59;15.50;99.90
17998;DHT22;9124;48.144;17.098;2023-08-06T04:17:26;15.50;99.90
17998;DHT22;9124;48.144;17.098;2023-08-06T04:21:52;15.50;99.90
17998;DHT22;9124;48.144;17.098;2023-08-06T04:26:19;15.50;99.90
17998;DHT22;9124;48.144;17.098;2023-08-06T04:30:45;15.50;99.90
17998;DHT22;9124;48.144;17.098;2023-08-06T04:35:11;15.50;99.90
17998;DHT22;9124;48.144;17.098;2023-08-06T04:39:37;15.50;99.90
17998;DHT22;9124;48.144;17.098;2023-08-06T04:44:05;15.50;99.90
17998;DHT22;9124;48.144;17.098;2023-08-06T04:48:31;15.50;99.90
17998;DHT22;9124;48.144;17.098;2023-08-06T04:52:58;15.50;99.90
17998;DHT22;9124;48.144;17.098;2023-08-06T04:57:24;15.50;99.90
17998;DHT22;9124;48.144;17.098;2023-08-06T05:01:50;15.50;99.90
17998;DHT22;9124;48.144;17.098;2023-08-06T05:06:17;15.50;99.90
17998;DHT22;9124;48.144;17.098;2023-08-06T05:10:44;15.50;99.90
17998;DHT22;9124;48.144;17.098;2023-08-06T05:15:11;15.50;99.90
17998;DHT22;9124;48.144;17.098;2023-08-06T05:19:37;15.50;99.90
17998;DHT22;9124;48.144;17.098;2023-08-06T05:24:03;15.50;99.90
17998;DHT22;9124;48.144;17.098;2023-08-06T05:28:30;15.60;99.90
17998;DHT22;9124;48.144;17.098;2023-08-06T05:32:56;15.60;99.90
17998;DHT22;9124;48.144;17.098;2023-08-06T05:37:23;15.60;99.90
17998;DHT22;9124;48.144;17.098;2023-08-06T05:41:51;15.70;99.90
17998;DHT22;9124;48.144;17.098;2023-08-06T05:46:18;15.70;99.90
17998;DHT22;9124;48.144;17.098;2023-08-06T05:50:45;15.80;99.90
17998;DHT22;9124;48.144;17.098;2023-08-06T05:55:11;15.90;99.90
17998;DHT22;9124;48.144;17.098;2023-08-06T05:59:38;15.90;99.90
17998;DHT22;9124;48.144;17.098;2023-08-06T06:04:04;15.90;99.90
17998;DHT22;9124;48.144;17.098;2023-08-06T06:08:30;15.90;99.90
17998;DHT22;9124;48.144;17.098;2023-08-06T06:12:56;16.00;99.90
17998;DHT22;9124;48.144;17.098;2023-08-06T06:17:23;16.10;99.90
17998;DHT22;9124;48.144;17.098;2023-08-06T06:21:49;16.20;99.90
17998;DHT22;9124;48.144;17.098;2023-08-06T06:26:16;16.20;99.90
17998;DHT22;9124;48.144;17.098;2023-08-06T06:30:42;16.30;99.90
17998;DHT22;9124;48.144;17.098;2023-08-06T06:35:08;16.30;99.90
17998;DHT22;9124;48.144;17.098;2023-08-06T06:39:38;16.40;99.90
17998;DHT22;9124;48.144;17.098;2023-08-06T06:44:05;16.50;99.90
17998;DHT22;9124;48.144;17.098;2023-08-06T06:48:32;16.60;99.90
17998;DHT22;9124;48.144;17.098;2023-08-06T06:52:59;16.70;99.90
17998;DHT22;9124;48.144;17.098;2023-08-06T06:57:25;16.80;99.90
17998;DHT22;9124;48.144;17.098;2023-08-06T07:01:52;16.80;99.90
17998;DHT22;9124;48.144;17.098;2023-08-06T07:06:19;16.80;99.90
17998;DHT22;9124;48.144;17.098;2023-08-06T07:10:45;16.80;99.90
17998;DHT22;9124;48.144;17.098;2023-08-06T07:15:11;16.70;99.90
17998;DHT22;9124;48.144;17.098;2023-08-06T07:19:38;16.70;99.90
17998;DHT22;9124;48.144;17.098;2023-08-06T07:24:04;16.70;99.90
17998;DHT22;9124;48.144;17.098;2023-08-06T07:28:31;16.80;99.90
17998;DHT22;9124;48.144;17.098;2023-08-06T07:32:57;17.00;99.90
17998;DHT22;9124;48.144;17.098;2023-08-06T07:37:23;17.20;99.90
17998;DHT22;9124;48.144;17.098;2023-08-06T07:41:50;17.30;99.90
17998;DHT22;9124;48.144;17.098;2023-08-06T07:46:16;17.40;99.90
17998;DHT22;9124;48.144;17.098;2023-08-06T07:50:42;17.50;99.90
17998;DHT22;9124;48.144;17.098;2023-08-06T07:55:15;17.40;99.90
17998;DHT22;9124;48.144;17.098;2023-08-06T07:59:42;17.40;99.90
17998;DHT22;9124;48.144;17.098;2023-08-06T08:04:08;17.30;99.90
17998;DHT22;9124;48.144;17.098;2023-08-06T08:08:35;17.30;99.90
17998;DHT22;9124;48.144;17.098;2023-08-06T08:13:04;17.30;99.90
17998;DHT22;9124;48.144;17.098;2023-08-06T08:17:31;17.30;99.90
17998;DHT22;9124;48.144;17.098;2023-08-06T08:21:57;17.50;99.90
17998;DHT22;9124;48.144;17.098;2023-08-06T08:26:23;17.60;99.90
17998;DHT22;9124;48.144;17.098;2023-08-06T08:30:50;17.80;99.90
17998;DHT22;9124;48.144;17.098;2023-08-06T08:35:16;18.00;99.90
17998;DHT22;9124;48.144;17.098;2023-08-06T08:39:43;18.10;99.90
17998;DHT22;9124;48.144;17.098;2023-08-06T08:44:10;18.20;99.90
17998;DHT22;9124;48.144;17.098;2023-08-06T08:48:36;18.30;99.90
17998;DHT22;9124;48.144;17.098;2023-08-06T08:53:03;18.40;99.90
17998;DHT22;9124;48.144;17.098;2023-08-06T08:57:30;18.20;99.90
17998;DHT22;9124;48.144;17.098;2023-08-06T09:01:58;18.10;99.90
17998;DHT22;9124;48.144;17.098;2023-08-06T09:06:26;18.10;99.90
17998;DHT22;9124;48.144;17.098;2023-08-06T09:10:54;18.00;99.90
17998;DHT22;9124;48.144;17.098;2023-08-06T09:15:26;18.10;99.90
17998;DHT22;9124;48.144;17.098;2023-08-06T09:19:55;18.20;99.90
17998;DHT22;9124;48.144;17.098;2023-08-06T09:24:21;18.30;99.90
17998;DHT22;9124;48.144;17.098;2023-08-06T09:28:48;18.30;99.90
17998;DHT22;9124;48.144;17.098;2023-08-06T09:33:18;18.40;99.90
17998;DHT22;9124;48.144;17.098;2023-08-06T09:37:45;18.60;99.90
17998;DHT22;9124;48.144;17.098;2023-08-06T09:42:15;18.80;99.90
17998;DHT22;9124;48.144;17.098;2023-08-06T09:46:41;18.90;99.90
17998;DHT22;9124;48.144;17.098;2023-08-06T09:51:08;19.00;99.90
17998;DHT22;9124;48.144;17.098;2023-08-06T09:55:38;19.00;99.90
17998;DHT22;9124;48.144;17.098;2023-08-06T10:00:05;19.10;99.90
17998;DHT22;9124;48.144;17.098;2023-08-06T10:04:39;19.20;99.90
17998;DHT22;9124;48.144;17.098;2023-08-06T10:09:06;19.40;99.90
17998;DHT22;9124;48.144;17.098;2023-08-06T10:13:34;19.40;99.90
17998;DHT22;9124;48.144;17.098;2023-08-06T10:18:01;19.30;99.90
17998;DHT22;9124;48.144;17.098;2023-08-06T10:22:28;19.30;99.90
17998;DHT22;9124;48.144;17.098;2023-08-06T10:26:59;19.30;99.90
17998;DHT22;9124;48.144;17.098;2023-08-06T10:31:53;19.20;99.90
17998;DHT22;9124;48.144;17.098;2023-08-06T10:36:21;19.10;99.90
17998;DHT22;9124;48.144;17.098;2023-08-06T10:40:48;19.10;99.90
17998;DHT22;9124;48.144;17.098;2023-08-06T10:45:18;19.10;99.90
17998;DHT22;9124;48.144;17.098;2023-08-06T10:49:45;18.90;99.90
17998;DHT22;9124;48.144;17.098;2023-08-06T10:54:11;19.00;99.90
17998;DHT22;9124;48.144;17.098;2023-08-06T10:58:38;19.00;99.90
17998;DHT22;9124;48.144;17.098;2023-08-06T11:03:04;19.10;99.90
17998;DHT22;9124;48.144;17.098;2023-08-06T11:07:32;19.10;99.90
17998;DHT22;9124;48.144;17.098;2023-08-06T11:11:58;19.10;99.90
17998;DHT22;9124;48.144;17.098;2023-08-06T11:16:24;19.00;99.90
17998;DHT22;9124;48.144;17.098;2023-08-06T11:20:51;19.00;99.90
17998;DHT22;9124;48.144;17.098;2023-08-06T11:25:20;19.00;99.90
17998;DHT22;9124;48.144;17.098;2023-08-06T11:29:47;19.10;99.90
17998;DHT22;9124;48.144;17.098;2023-08-06T11:34:15;19.10;99.90
17998;DHT22;9124;48.144;17.098;2023-08-06T11:38:42;19.20;99.90
17998;DHT22;9124;48.144;17.098;2023-08-06T11:43:09;19.30;99.90
17998;DHT22;9124;48.144;17.098;2023-08-06T11:47:38;19.30;99.90
17998;DHT22;9124;48.144;17.098;2023-08-06T11:52:10;19.30;99.90
17998;DHT22;9124;48.144;17.098;2023-08-06T11:56:37;19.40;99.90
17998;DHT22;9124;48.144;17.098;2023-08-06T12:01:04;19.50;99.90
17998;DHT22;9124;48.144;17.098;2023-08-06T12:05:31;19.60;99.90
17998;DHT22;9124;48.144;17.098;2023-08-06T12:10:01;19.70;99.90
17998;DHT22;9124;48.144;17.098;2023-08-06T12:14:27;19.60;99.90
17998;DHT22;9124;48.144;17.098;2023-08-06T12:18:54;19.50;99.90
17998;DHT22;9124;48.144;17.098;2023-08-06T12:23:20;19.30;99.90
17998;DHT22;9124;48.144;17.098;2023-08-06T12:27:47;19.20;99.90
17998;DHT22;9124;48.144;17.098;2023-08-06T12:32:14;19.00;99.90
17998;DHT22;9124;48.144;17.098;2023-08-06T12:36:41;19.00;99.90
17998;DHT22;9124;48.144;17.098;2023-08-06T12:41:07;18.90;99.90
17998;DHT22;9124;48.144;17.098;2023-08-06T12:45:34;18.80;99.90
17998;DHT22;9124;48.144;17.098;2023-08-06T12:50:00;18.80;99.90
17998;DHT22;9124;48.144;17.098;2023-08-06T12:54:28;18.80;99.90
17998;DHT22;9124;48.144;17.098;2023-08-06T12:58:54;18.80;99.90
17998;DHT22;9124;48.144;17.098;2023-08-06T13:03:21;18.70;99.90
17998;DHT22;9124;48.144;17.098;2023-08-06T13:07:47;18.70;99.90
17998;DHT22;9124;48.144;17.098;2023-08-06T13:12:13;18.80;99.90
17998;DHT22;9124;48.144;17.098;2023-08-06T13:16:41;18.80;99.90
17998;DHT22;9124;48.144;17.098;2023-08-06T13:21:08;18.90;99.90
17998;DHT22;9124;48.144;17.098;2023-08-06T13:25:34;19.00;99.90
17998;DHT22;9124;48.144;17.098;2023-08-06T13:30:04;18.90;99.90
17998;DHT22;9124;48.144;17.098;2023-08-06T13:34:30;18.90;99.90
17998;DHT22;9124;48.144;17.098;2023-08-06T13:38:56;18.80;99.90
17998;DHT22;9124;48.144;17.098;2023-08-06T13:43:24;18.80;99.90
17998;DHT22;9124;48.144;17.098;2023-08-06T13:47:50;18.60;99.90
17998;DHT22;9124;48.144;17.098;2023-08-06T13:52:17;18.40;99.90
17998;DHT22;9124;48.144;17.098;2023-08-06T13:56:43;18.40;99.90
17998;DHT22;9124;48.144;17.098;2023-08-06T14:01:11;18.40;99.90
17998;DHT22;9124;48.144;17.098;2023-08-06T14:05:37;18.50;99.90
17998;DHT22;9124;48.144;17.098;2023-08-06T14:10:04;18.70;99.90
17998;DHT22;9124;48.144;17.098;2023-08-06T14:14:30;19.00;99.90
17998;DHT22;9124;48.144;17.098;2023-08-06T14:18:57;19.30;99.90
17998;DHT22;9124;48.144;17.098;2023-08-06T14:23:23;19.50;99.90
17998;DHT22;9124;48.144;17.098;2023-08-06T14:27:50;19.80;99.90
17998;DHT22;9124;48.144;17.098;2023-08-06T14:32:16;20.00;99.90
17998;DHT22;9124;48.144;17.098;2023-08-06T14:36:44;20.10;99.90
17998;DHT22;9124;48.144;17.098;2023-08-06T14:41:10;20.20;99.90
17998;DHT22;9124;48.144;17.098;2023-08-06T14:45:40;20.30;99.90
17998;DHT22;9124;48.144;17.098;2023-08-06T14:50:07;20.40;99.90
17998;DHT22;9124;48.144;17.098;2023-08-06T14:54:34;20.60;99.90
17998;DHT22;9124;48.144;17.098;2023-08-06T14:59:00;20.70;99.90
17998;DHT22;9124;48.144;17.098;2023-08-06T15:03:26;20.70;99.90
17998;DHT22;9124;48.144;17.098;2023-08-06T15:07:54;20.80;99.90
17998;DHT22;9124;48.144;17.098;2023-08-06T15:12:20;20.90;99.90
17998;DHT22;9124;48.144;17.098;2023-08-06T15:16:47;20.80;99.90
17998;DHT22;9124;48.144;17.098;2023-08-06T15:21:13;20.90;99.90
17998;DHT22;9124;48.144;17.098;2023-08-06T15:25:39;20.90;99.90
17998;DHT22;9124;48.144;17.098;2023-08-06T15:30:07;20.80;99.90
17998;DHT22;9124;48.144;17.098;2023-08-06T15:34:36;20.80;99.90
17998;DHT22;9124;48.144;17.098;2023-08-06T15:39:03;20.90;99.90
17998;DHT22;9124;48.144;17.098;2023-08-06T15:43:30;20.90;99.90
17998;DHT22;9124;48.144;17.098;2023-08-06T15:47:56;20.90;99.90
17998;DHT22;9124;48.144;17.098;2023-08-06T15:52:23;20.90;99.90
17998;DHT22;9124;48.144;17.098;2023-08-06T15:56:49;20.80;99.90
17998;DHT22;9124;48.144;17.098;2023-08-06T16:01:15;20.80;99.90
17998;DHT22;9124;48.144;17.098;2023-08-06T16:05:41;20.60;99.90
17998;DHT22;9124;48.144;17.098;2023-08-06T16:10:10;20.00;99.90
17998;DHT22;9124;48.144;17.098;2023-08-06T16:14:36;19.30;99.90
17998;DHT22;9124;48.144;17.098;2023-08-06T16:19:03;18.70;99.90
17998;DHT22;9124;48.144;17.098;2023-08-06T16:23:29;18.30;99.90
17998;DHT22;9124;48.144;17.098;2023-08-06T16:27:56;18.00;99.90
17998;DHT22;9124;48.144;17.098;2023-08-06T16:32:22;17.70;99.90
17998;DHT22;9124;48.144;17.098;2023-08-06T16:36:48;17.60;99.90
17998;DHT22;9124;48.144;17.098;2023-08-06T16:41:15;17.60;99.90
17998;DHT22;9124;48.144;17.098;2023-08-06T16:45:41;17.60;99.90
17998;DHT22;9124;48.144;17.098;2023-08-06T16:50:08;17.70;99.90
17998;DHT22;9124;48.144;17.098;2023-08-06T16:54:34;17.70;99.90
17998;DHT22;9124;48.144;17.098;2023-08-06T16:59:01;17.60;99.90
17998;DHT22;9124;48.144;17.098;2023-08-06T17:03:27;17.50;99.90
17998;DHT22;9124;48.144;17.098;2023-08-06T17:07:53;17.30;99.90
17998;DHT22;9124;48.144;17.098;2023-08-06T17:12:19;17.20;99.90
17998;DHT22;9124;48.144;17.098;2023-08-06T17:16:47;16.90;99.90
17998;DHT22;9124;48.144;17.098;2023-08-06T17:21:13;16.70;99.90
17998;DHT22;9124;48.144;17.098;2023-08-06T17:25:40;16.50;99.90
17998;DHT22;9124;48.144;17.098;2023-08-06T17:30:07;16.40;99.90
17998;DHT22;9124;48.144;17.098;2023-08-06T17:34:33;16.30;99.90
17998;DHT22;9124;48.144;17.098;2023-08-06T17:39:00;16.20;99.90
17998;DHT22;9124;48.144;17.098;2023-08-06T17:43:26;16.20;99.90
17998;DHT22;9124;48.144;17.098;2023-08-06T17:47:53;16.20;99.90
17998;DHT22;9124;48.144;17.098;2023-08-06T17:52:19;16.30;99.90
17998;DHT22;9124;48.144;17.098;2023-08-06T17:56:45;16.30;99.90
17998;DHT22;9124;48.144;17.098;2023-08-06T18:01:12;16.20;99.90
17998;DHT22;9124;48.144;17.098;2023-08-06T18:05:38;16.20;99.90
17998;DHT22;9124;48.144;17.098;2023-08-06T18:10:05;16.10;99.90
17998;DHT22;9124;48.144;17.098;2023-08-06T18:14:35;16.10;99.90
17998;DHT22;9124;48.144;17.098;2023-08-06T18:19:02;16.10;99.90
17998;DHT22;9124;48.144;17.098;2023-08-06T18:23:28;16.10;99.90
17998;DHT22;9124;48.144;17.098;2023-08-06T18:27:55;16.00;99.90
17998;DHT22;9124;48.144;17.098;2023-08-06T18:32:21;15.80;99.90
17998;DHT22;9124;48.144;17.098;2023-08-06T18:36:47;15.80;99.90
17998;DHT22;9124;48.144;17.098;2023-08-06T18:41:14;15.70;99.90
17998;DHT22;9124;48.144;17.098;2023-08-06T18:45:40;15.60;99.90
17998;DHT22;9124;48.144;17.098;2023-08-06T18:50:07;15.50;99.90
17998;DHT22;9124;48.144;17.098;2023-08-06T18:54:33;15.50;99.90
17998;DHT22;9124;48.144;17.098;2023-08-06T18:59:00;15.40;99.90
17998;DHT22;9124;48.144;17.098;2023-08-06T19:03:26;15.40;99.90
17998;DHT22;9124;48.144;17.098;2023-08-06T19:07:52;15.50;99.90
17998;DHT22;9124;48.144;17.098;2023-08-06T19:12:18;15.50;99.90
17998;DHT22;9124;48.144;17.098;2023-08-06T19:16:47;15.50;99.90
17998;DHT22;9124;48.144;17.098;2023-08-06T19:21:13;15.60;99.90
17998;DHT22;9124;48.144;17.098;2023-08-06T19:25:47;15.60;99.90
17998;DHT22;9124;48.144;17.098;2023-08-06T19:30:14;15.60;99.90
17998;DHT22;9124;48.144;17.098;2023-08-06T19:34:41;15.60;99.90
17998;DHT22;9124;48.144;17.098;2023-08-06T19:39:09;15.60;99.90
17998;DHT22;9124;48.144;17.098;2023-08-06T19:43:36;15.50;99.90
17998;DHT22;9124;48.144;17.098;2023-08-06T19:48:02;15.50;99.90
17998;DHT22;9124;48.144;17.098;2023-08-06T19:52:28;15.30;99.90
17998;DHT22;9124;48.144;17.098;2023-08-06T19:56:54;15.20;99.90
17998;DHT22;9124;48.144;17.098;2023-08-06T20:01:21;15.10;99.90
17998;DHT22;9124;48.144;17.098;2023-08-06T20:05:47;15.00;99.90
17998;DHT22;9124;48.144;17.098;2023-08-06T20:10:13;14.90;99.90
17998;DHT22;9124;48.144;17.098;2023-08-06T20:14:40;14.70;99.90
17998;DHT22;9124;48.144;17.098;2023-08-06T20:19:06;14.60;99.90
17998;DHT22;9124;48.144;17.098;2023-08-06T20:23:33;14.40;99.90
17998;DHT22;9124;48.144;17.098;2023-08-06T20:28:00;14.40;99.90
17998;DHT22;9124;48.144;17.098;2023-08-06T20:32:27;14.30;99.90
17998;DHT22;9124;48.144;17.098;2023-08-06T20:36:53;14.20;99.90
17998;DHT22;9124;48.144;17.098;2023-08-06T20:41:19;14.10;99.90
17998;DHT22;9124;48.144;17.098;2023-08-06T20:45:55;14.10;99.90
17998;DHT22;9124;48.144;17.098;2023-08-06T20:50:22;14.00;99.90
17998;DHT22;9124;48.144;17.098;2023-08-06T20:54:48;13.90;99.90
17998;DHT22;9124;48.144;17.098;2023-08-06T20:59:14;13.90;99.90
17998;DHT22;9124;48.144;17.098;2023-08-06T21:03:41;13.80;99.90
17998;DHT22;9124;48.144;17.098;2023-08-06T21:08:07;13.80;99.90
17998;DHT22;9124;48.144;17.098;2023-08-06T21:12:36;13.90;99.90
17998;DHT22;9124;48.144;17.098;2023-08-06T21:17:02;13.90;99.90
17998;DHT22;9124;48.144;17.098;2023-08-06T21:21:29;14.00;99.90
17998;DHT22;9124;48.144;17.098;2023-08-06T21:25:57;14.20;99.90
17998;DHT22;9124;48.144;17.098;2023-08-06T21:30:24;14.30;99.90
17998;DHT22;9124;48.144;17.098;2023-08-06T21:34:50;14.30;99.90
17998;DHT22;9124;48.144;17.098;2023-08-06T21:39:17;14.20;99.90
17998;DHT22;9124;48.144;17.098;2023-08-06T21:43:45;14.10;99.90
17998;DHT22;9124;48.144;17.098;2023-08-06T21:48:12;14.10;99.90
17998;DHT22;9124;48.144;17.098;2023-08-06T21:52:38;14.10;99.90
17998;DHT22;9124;48.144;17.098;2023-08-06T21:57:05;14.10;99.90
17998;DHT22;9124;48.144;17.098;2023-08-06T22:01:31;14.20;99.90
17998;DHT22;9124;48.144;17.098;2023-08-06T22:05:57;14.20;99.90
17998;DHT22;9124;48.144;17.098;2023-08-06T22:10:24;14.30;99.90
17998;DHT22;9124;48.144;17.098;2023-08-06T22:14:50;14.40;99.90
17998;DHT22;9124;48.144;17.098;2023-08-06T22:19:16;14.50;99.90
17998;DHT22;9124;48.144;17.098;2023-08-06T22:23:42;14.50;99.90
17998;DHT22;9124;48.144;17.098;2023-08-06T22:28:09;14.60;99.90
17998;DHT22;9124;48.144;17.098;2023-08-06T22:32:35;14.60;99.90
17998;DHT22;9124;48.144;17.098;2023-08-06T22:37:02;14.40;99.90
17998;DHT22;9124;48.144;17.098;2023-08-06T22:41:28;14.30;99.90
17998;DHT22;9124;48.144;17.098;2023-08-06T22:45:55;14.20;99.90
17998;DHT22;9124;48.144;17.098;2023-08-06T22:50:21;14.10;99.90
17998;DHT22;9124;48.144;17.098;2023-08-06T22:54:47;14.10;99.90
17998;DHT22;9124;48.144;17.098;2023-08-06T22:59:14;14.00;99.90
17998;DHT22;9124;48.144;17.098;2023-08-06T23:03:40;14.00;99.90
17998;DHT22;9124;48.144;17.098;2023-08-06T23:08:09;14.00;99.90
17998;DHT22;9124;48.144;17.098;2023-08-06T23:12:35;14.00;99.90
17998;DHT22;9124;48.144;17.098;2023-08-06T23:17:02;13.90;99.90
17998;DHT22;9124;48.144;17.098;2023-08-06T23:21:28;13.90;99.90
17998;DHT22;9124;48.144;17.098;2023-08-06T23:25:55;13.90;99.90
17998;DHT22;9124;48.144;17.098;2023-08-06T23:30:21;13.90;99.90
17998;DHT22;9124;48.144;17.098;2023-08-06T23:34:47;13.90;99.90
17998;DHT22;9124;48.144;17.098;2023-08-06T23:39:13;13.90;99.90
17998;DHT22;9124;48.144;17.098;2023-08-06T23:43:40;13.80;99.90
17998;DHT22;9124;48.144;17.098;2023-08-06T23:48:07;13.80;99.90
17998;DHT22;9124;48.144;17.098;2023-08-06T23:52:34;13.80;99.90
17998;DHT22;9124;48.144;17.098;2023-08-06T23:57:00;13.80;99.90
